sensor_id;sensor_type;location;lat;lon;timestamp;temperature;humidity
30889;DHT22;51092;50.874;7.024;2023-05-07T00:00:40;15.40;99.90
30889;DHT22;51092;50.874;7.024;2023-05-07T00:01:42;15.40;99.90
30889;DHT22;51092;50.874;7.024;2023-05-07T00:02:44;15.40;99.90
30889;DHT22;51092;50.874;7.024;2023-05-07T00:03:46;15.40;99.90
30889;DHT22;51092;50.874;7.024;2023-05-07T00:04:49;15.40;99.90
30889;DHT22;51092;50.874;7.024;2023-05-07T00:05:50;15.30;99.90
30889;DHT22;51092;50.874;7.024;2023-05-07T00:06:54;15.30;99.90
30889;DHT22;51092;50.874;7.024;2023-05-07T00:07:56;15.20;99.90
30889;DHT22;51092;50.874;7.024;2023-05-07T00:08:58;15.20;99.90
30889;DHT22;51092;50.874;7.024;2023-05-07T00:10:01;15.20;99.90
30889;DHT22;51092;50.874;7.024;2023-05-07T00:11:03;15.10;99.90
30889;DHT22;51092;50.874;7.024;2023-05-07T00:12:05;15.00;99.90
30889;DHT22;51092;50.874;7.024;2023-05-07T00:13:08;15.00;99.90
30889;DHT22;51092;50.874;7.024;2023-05-07T00:14:09;14.90;99.90
30889;DHT22;51092;50.874;7.024;2023-05-07T00:15:11;14.80;99.90
30889;DHT22;51092;50.874;7.024;2023-05-07T00:16:14;14.80;99.90
30889;DHT22;51092;50.874;7.024;2023-05-07T00:17:17;14.90;99.90
30889;DHT22;51092;50.874;7.024;2023-05-07T00:18:18;14.90;99.90
30889;DHT22;51092;50.874;7.024;2023-05-07T00:19:21;14.90;99.90
30889;DHT22;51092;50.874;7.024;2023-05-07T00:20:22;14.90;99.90
30889;DHT22;51092;50.874;7.024;2023-05-07T00:21:24;14.90;99.90
30889;DHT22;51092;50.874;7.024;2023-05-07T00:22:27;14.90;99.90
30889;DHT22;51092;50.874;7.024;2023-05-07T00:23:31;15.00;99.90
30889;DHT22;51092;50.874;7.024;2023-05-07T00:24:32;15.00;99.90
30889;DHT22;51092;50.874;7.024;2023-05-07T00:25:35;15.00;99.90
30889;DHT22;51092;50.874;7.024;2023-05-07T00:26:37;15.00;99.90
30889;DHT22;51092;50.874;7.024;2023-05-07T00:27:39;15.00;99.90
30889;DHT22;51092;50.874;7.024;2023-05-07T00:28:41;14.90;99.90
30889;DHT22;51092;50.874;7.024;2023-05-07T00:29:44;14.90;99.90
30889;DHT22;51092;50.874;7.024;2023-05-07T00:30:45;14.90;99.90
30889;DHT22;51092;50.874;7.024;2023-05-07T00:31:50;14.90;99.90
30889;DHT22;51092;50.874;7.024;2023-05-07T00:32:52;14.90;99.90
30889;DHT22;51092;50.874;7.024;2023-05-07T00:33:54;14.90;99.90
30889;DHT22;51092;50.874;7.024;2023-05-07T00:34:56;15.00;99.90
30889;DHT22;51092;50.874;7.024;2023-05-07T00:35:58;15.00;99.90
30889;DHT22;51092;50.874;7.024;2023-05-07T00:37:02;15.10;99.90
30889;DHT22;51092;50.874;7.024;2023-05-07T00:38:04;15.10;99.90
30889;DHT22;51092;50.874;7.024;2023-05-07T00:39:06;15.10;99.90
30889;DHT22;51092;50.874;7.024;2023-05-07T00:40:09;15.20;99.90
30889;DHT22;51092;50.874;7.024;2023-05-07T00:41:10;15.20;99.90
30889;DHT22;51092;50.874;7.024;2023-05-07T00:42:13;15.20;99.90
30889;DHT22;51092;50.874;7.024;2023-05-07T00:43:16;15.20;99.90
30889;DHT22;51092;50.874;7.024;2023-05-07T00:44:18;15.20;99.90
30889;DHT22;51092;50.874;7.024;2023-05-07T00:45:20;15.20;99.90
30889;DHT22;51092;50.874;7.024;2023-05-07T00:46:23;15.20;99.90
30889;DHT22;51092;50.874;7.024;2023-05-07T00:47:26;15.30;99.90
30889;DHT22;51092;50.874;7.024;2023-05-07T00:48:28;15.30;99.90
30889;DHT22;51092;50.874;7.024;2023-05-07T00:49:37;15.30;99.90
30889;DHT22;51092;50.874;7.024;2023-05-07T00:50:40;15.30;99.90
30889;DHT22;51092;50.874;7.024;2023-05-07T00:51:41;15.20;99.90
30889;DHT22;51092;50.874;7.024;2023-05-07T00:52:44;15.20;99.90
30889;DHT22;51092;50.874;7.024;2023-05-07T00:53:46;15.20;99.90
30889;DHT22;51092;50.874;7.024;2023-05-07T00:54:49;15.20;99.90
30889;DHT22;51092;50.874;7.024;2023-05-07T00:55:51;15.20;99.90
30889;DHT22;51092;50.874;7.024;2023-05-07T00:56:54;15.20;99.90
30889;DHT22;51092;50.874;7.024;2023-05-07T00:57:56;15.30;99.90
30889;DHT22;51092;50.874;7.024;2023-05-07T00:58:59;15.20;99.90
30889;DHT22;51092;50.874;7.024;2023-05-07T01:00:01;15.20;99.90
30889;DHT22;51092;50.874;7.024;2023-05-07T01:01:04;15.30;99.90
30889;DHT22;51092;50.874;7.024;2023-05-07T01:02:06;15.30;99.90
30889;DHT22;51092;50.874;7.024;2023-05-07T01:03:11;15.30;99.90
30889;DHT22;51092;50.874;7.024;2023-05-07T01:04:12;15.30;99.90
30889;DHT22;51092;50.874;7.024;2023-05-07T01:05:17;15.30;99.90
30889;DHT22;51092;50.874;7.024;2023-05-07T01:06:19;15.30;99.90
30889;DHT22;51092;50.874;7.024;2023-05-07T01:07:23;15.30;99.90
30889;DHT22;51092;50.874;7.024;2023-05-07T01:08:25;15.30;99.90
30889;DHT22;51092;50.874;7.024;2023-05-07T01:09:29;15.30;99.90
30889;DHT22;51092;50.874;7.024;2023-05-07T01:10:30;15.30;99.90
30889;DHT22;51092;50.874;7.024;2023-05-07T01:11:33;15.30;99.90
30889;DHT22;51092;50.874;7.024;2023-05-07T01:12:35;15.30;99.90
30889;DHT22;51092;50.874;7.024;2023-05-07T01:13:39;15.30;99.90
30889;DHT22;51092;50.874;7.024;2023-05-07T01:14:41;15.30;99.90
30889;DHT22;51092;50.874;7.024;2023-05-07T01:15:43;15.20;99.90
30889;DHT22;51092;50.874;7.024;2023-05-07T01:16:45;15.20;99.90
30889;DHT22;51092;50.874;7.024;2023-05-07T01:17:47;15.30;99.90
30889;DHT22;51092;50.874;7.024;2023-05-07T01:18:50;15.20;99.90
30889;DHT22;51092;50.874;7.024;2023-05-07T01:19:53;15.20;99.90
30889;DHT22;51092;50.874;7.024;2023-05-07T01:20:55;15.30;99.90
30889;DHT22;51092;50.874;7.024;2023-05-07T01:22:02;15.20;99.90
30889;DHT22;51092;50.874;7.024;2023-05-07T01:23:07;15.20;99.90
30889;DHT22;51092;50.874;7.024;2023-05-07T01:24:10;15.20;99.90
30889;DHT22;51092;50.874;7.024;2023-05-07T01:25:12;15.20;99.90
30889;DHT22;51092;50.874;7.024;2023-05-07T01:26:17;15.10;99.90
30889;DHT22;51092;50.874;7.024;2023-05-07T01:27:20;15.10;99.90
30889;DHT22;51092;50.874;7.024;2023-05-07T01:28:23;15.10;99.90
30889;DHT22;51092;50.874;7.024;2023-05-07T01:29:24;15.10;99.90
30889;DHT22;51092;50.874;7.024;2023-05-07T01:30:27;15.00;99.90
30889;DHT22;51092;50.874;7.024;2023-05-07T01:31:30;15.00;99.90
30889;DHT22;51092;50.874;7.024;2023-05-07T01:32:35;15.00;99.90
30889;DHT22;51092;50.874;7.024;2023-05-07T01:33:40;15.00;99.90
30889;DHT22;51092;50.874;7.024;2023-05-07T01:34:46;15.00;99.90
30889;DHT22;51092;50.874;7.024;2023-05-07T01:35:52;15.00;99.90
30889;DHT22;51092;50.874;7.024;2023-05-07T01:36:56;15.00;99.90
30889;DHT22;51092;50.874;7.024;2023-05-07T01:37:59;15.00;99.90
30889;DHT22;51092;50.874;7.024;2023-05-07T01:39:03;15.00;99.90
30889;DHT22;51092;50.874;7.024;2023-05-07T01:40:07;15.00;99.90
30889;DHT22;51092;50.874;7.024;2023-05-07T01:41:11;14.90;99.90
30889;DHT22;51092;50.874;7.024;2023-05-07T01:42:13;15.00;99.90
30889;DHT22;51092;50.874;7.024;2023-05-07T01:43:16;14.90;99.90
30889;DHT22;51092;50.874;7.024;2023-05-07T01:44:18;14.90;99.90
30889;DHT22;51092;50.874;7.024;2023-05-07T01:45:21;14.90;99.90
30889;DHT22;51092;50.874;7.024;2023-05-07T01:46:23;14.90;99.90
30889;DHT22;51092;50.874;7.024;2023-05-07T01:47:27;14.90;99.90
30889;DHT22;51092;50.874;7.024;2023-05-07T01:48:30;14.90;99.90
30889;DHT22;51092;50.874;7.024;2023-05-07T01:49:34;14.80;99.90
30889;DHT22;51092;50.874;7.024;2023-05-07T01:50:36;14.80;99.90
30889;DHT22;51092;50.874;7.024;2023-05-07T01:51:40;14.80;99.90
30889;DHT22;51092;50.874;7.024;2023-05-07T01:52:41;14.80;99.90
30889;DHT22;51092;50.874;7.024;2023-05-07T01:53:44;14.80;99.90
30889;DHT22;51092;50.874;7.024;2023-05-07T01:54:48;14.90;99.90
30889;DHT22;51092;50.874;7.024;2023-05-07T01:55:50;14.90;99.90
30889;DHT22;51092;50.874;7.024;2023-05-07T01:56:52;14.80;99.90
30889;DHT22;51092;50.874;7.024;2023-05-07T01:57:54;14.90;99.90
30889;DHT22;51092;50.874;7.024;2023-05-07T01:58:56;14.90;99.90
30889;DHT22;51092;50.874;7.024;2023-05-07T01:59:58;15.00;99.90
30889;DHT22;51092;50.874;7.024;2023-05-07T02:01:00;15.00;99.90
30889;DHT22;51092;50.874;7.024;2023-05-07T02:02:02;15.00;99.90
30889;DHT22;51092;50.874;7.024;2023-05-07T02:03:03;15.00;99.90
30889;DHT22;51092;50.874;7.024;2023-05-07T02:04:06;15.00;99.90
30889;DHT22;51092;50.874;7.024;2023-05-07T02:05:08;15.00;99.90
30889;DHT22;51092;50.874;7.024;2023-05-07T02:06:11;15.00;99.90
30889;DHT22;51092;50.874;7.024;2023-05-07T02:07:12;15.00;99.90
30889;DHT22;51092;50.874;7.024;2023-05-07T02:08:14;15.00;99.90
30889;DHT22;51092;50.874;7.024;2023-05-07T02:09:16;15.00;99.90
30889;DHT22;51092;50.874;7.024;2023-05-07T02:10:20;15.00;99.90
30889;DHT22;51092;50.874;7.024;2023-05-07T02:11:21;15.00;99.90
30889;DHT22;51092;50.874;7.024;2023-05-07T02:12:25;15.00;99.90
30889;DHT22;51092;50.874;7.024;2023-05-07T02:13:28;15.00;99.90
30889;DHT22;51092;50.874;7.024;2023-05-07T02:14:31;15.00;99.90
30889;DHT22;51092;50.874;7.024;2023-05-07T02:15:32;14.90;99.90
30889;DHT22;51092;50.874;7.024;2023-05-07T02:16:35;14.90;99.90
30889;DHT22;51092;50.874;7.024;2023-05-07T02:17:39;14.90;99.90
30889;DHT22;51092;50.874;7.024;2023-05-07T02:19:00;14.80;99.90
30889;DHT22;51092;50.874;7.024;2023-05-07T02:20:02;14.90;99.90
30889;DHT22;51092;50.874;7.024;2023-05-07T02:21:05;14.80;99.90
30889;DHT22;51092;50.874;7.024;2023-05-07T02:22:06;14.80;99.90
30889;DHT22;51092;50.874;7.024;2023-05-07T02:23:08;14.80;99.90
30889;DHT22;51092;50.874;7.024;2023-05-07T02:24:09;14.70;99.90
30889;DHT22;51092;50.874;7.024;2023-05-07T02:25:11;14.70;99.90
30889;DHT22;51092;50.874;7.024;2023-05-07T02:26:13;14.70;99.90
30889;DHT22;51092;50.874;7.024;2023-05-07T02:27:16;14.70;99.90
30889;DHT22;51092;50.874;7.024;2023-05-07T02:28:17;14.70;99.90
30889;DHT22;51092;50.874;7.024;2023-05-07T02:29:20;14.80;99.90
30889;DHT22;51092;50.874;7.024;2023-05-07T02:30:21;14.70;99.90
30889;DHT22;51092;50.874;7.024;2023-05-07T02:31:23;14.70;99.90
30889;DHT22;51092;50.874;7.024;2023-05-07T02:32:25;14.80;99.90
30889;DHT22;51092;50.874;7.024;2023-05-07T02:33:27;14.70;99.90
30889;DHT22;51092;50.874;7.024;2023-05-07T02:34:29;14.70;99.90
30889;DHT22;51092;50.874;7.024;2023-05-07T02:35:31;14.60;99.90
30889;DHT22;51092;50.874;7.024;2023-05-07T02:36:33;14.70;99.90
30889;DHT22;51092;50.874;7.024;2023-05-07T02:37:36;14.70;99.90
30889;DHT22;51092;50.874;7.024;2023-05-07T02:38:37;14.70;99.90
30889;DHT22;51092;50.874;7.024;2023-05-07T02:39:39;14.70;99.90
30889;DHT22;51092;50.874;7.024;2023-05-07T02:40:41;14.60;99.90
30889;DHT22;51092;50.874;7.024;2023-05-07T02:41:45;14.60;99.90
30889;DHT22;51092;50.874;7.024;2023-05-07T02:42:46;14.60;99.90
30889;DHT22;51092;50.874;7.024;2023-05-07T02:43:49;14.60;99.90
30889;DHT22;51092;50.874;7.024;2023-05-07T02:44:50;14.70;99.90
30889;DHT22;51092;50.874;7.024;2023-05-07T02:46:00;14.70;99.90
30889;DHT22;51092;50.874;7.024;2023-05-07T02:47:03;14.70;99.90
30889;DHT22;51092;50.874;7.024;2023-05-07T02:48:09;14.70;99.90
30889;DHT22;51092;50.874;7.024;2023-05-07T02:49:10;14.70;99.90
30889;DHT22;51092;50.874;7.024;2023-05-07T02:50:13;14.70;99.90
30889;DHT22;51092;50.874;7.024;2023-05-07T02:51:14;14.80;99.90
30889;DHT22;51092;50.874;7.024;2023-05-07T02:52:17;14.80;99.90
30889;DHT22;51092;50.874;7.024;2023-05-07T02:53:18;14.70;99.90
30889;DHT22;51092;50.874;7.024;2023-05-07T02:54:21;14.80;99.90
30889;DHT22;51092;50.874;7.024;2023-05-07T02:55:22;14.80;99.90
30889;DHT22;51092;50.874;7.024;2023-05-07T02:56:26;14.80;99.90
30889;DHT22;51092;50.874;7.024;2023-05-07T02:57:29;14.80;99.90
30889;DHT22;51092;50.874;7.024;2023-05-07T02:58:31;14.80;99.90
30889;DHT22;51092;50.874;7.024;2023-05-07T02:59:32;14.80;99.90
30889;DHT22;51092;50.874;7.024;2023-05-07T03:00:35;14.90;99.90
30889;DHT22;51092;50.874;7.024;2023-05-07T03:01:37;14.90;99.90
30889;DHT22;51092;50.874;7.024;2023-05-07T03:02:41;14.90;99.90
30889;DHT22;51092;50.874;7.024;2023-05-07T03:03:44;14.90;99.90
30889;DHT22;51092;50.874;7.024;2023-05-07T03:04:46;14.90;99.90
30889;DHT22;51092;50.874;7.024;2023-05-07T03:05:48;14.90;99.90
30889;DHT22;51092;50.874;7.024;2023-05-07T03:06:50;15.00;99.90
30889;DHT22;51092;50.874;7.024;2023-05-07T03:07:52;15.00;99.90
30889;DHT22;51092;50.874;7.024;2023-05-07T03:08:54;14.90;99.90
30889;DHT22;51092;50.874;7.024;2023-05-07T03:09:56;14.90;99.90
30889;DHT22;51092;50.874;7.024;2023-05-07T03:10:58;14.80;99.90
30889;DHT22;51092;50.874;7.024;2023-05-07T03:12:00;14.90;99.90
30889;DHT22;51092;50.874;7.024;2023-05-07T03:13:04;14.80;99.90
30889;DHT22;51092;50.874;7.024;2023-05-07T03:14:06;14.80;99.90
30889;DHT22;51092;50.874;7.024;2023-05-07T03:15:09;14.80;99.90
30889;DHT22;51092;50.874;7.024;2023-05-07T03:16:11;14.80;99.90
30889;DHT22;51092;50.874;7.024;2023-05-07T03:17:14;14.80;99.90
30889;DHT22;51092;50.874;7.024;2023-05-07T03:18:17;14.70;99.90
30889;DHT22;51092;50.874;7.024;2023-05-07T03:19:19;14.70;99.90
30889;DHT22;51092;50.874;7.024;2023-05-07T03:20:21;14.70;99.90
30889;DHT22;51092;50.874;7.024;2023-05-07T03:21:23;14.70;99.90
30889;DHT22;51092;50.874;7.024;2023-05-07T03:22:25;14.80;99.90
30889;DHT22;51092;50.874;7.024;2023-05-07T03:23:28;14.80;99.90
30889;DHT22;51092;50.874;7.024;2023-05-07T03:24:29;14.80;99.90
30889;DHT22;51092;50.874;7.024;2023-05-07T03:25:32;14.80;99.90
30889;DHT22;51092;50.874;7.024;2023-05-07T03:26:34;14.80;99.90
30889;DHT22;51092;50.874;7.024;2023-05-07T03:27:35;14.80;99.90
30889;DHT22;51092;50.874;7.024;2023-05-07T03:28:38;14.80;99.90
30889;DHT22;51092;50.874;7.024;2023-05-07T03:29:39;14.70;99.90
30889;DHT22;51092;50.874;7.024;2023-05-07T03:30:40;14.70;99.90
30889;DHT22;51092;50.874;7.024;2023-05-07T03:31:43;14.70;99.90
30889;DHT22;51092;50.874;7.024;2023-05-07T03:32:44;14.70;99.90
30889;DHT22;51092;50.874;7.024;2023-05-07T03:33:51;14.70;99.90
30889;DHT22;51092;50.874;7.024;2023-05-07T03:34:53;14.70;99.90
30889;DHT22;51092;50.874;7.024;2023-05-07T03:35:55;14.70;99.90
30889;DHT22;51092;50.874;7.024;2023-05-07T03:36:57;14.70;99.90
30889;DHT22;51092;50.874;7.024;2023-05-07T03:37:59;14.70;99.90
30889;DHT22;51092;50.874;7.024;2023-05-07T03:39:01;14.70;99.90
30889;DHT22;51092;50.874;7.024;2023-05-07T03:40:04;14.70;99.90
30889;DHT22;51092;50.874;7.024;2023-05-07T03:41:06;14.70;99.90
30889;DHT22;51092;50.874;7.024;2023-05-07T03:42:08;14.70;99.90
30889;DHT22;51092;50.874;7.024;2023-05-07T03:43:10;14.70;99.90
30889;DHT22;51092;50.874;7.024;2023-05-07T03:44:14;14.70;99.90
30889;DHT22;51092;50.874;7.024;2023-05-07T03:45:15;14.70;99.90
30889;DHT22;51092;50.874;7.024;2023-05-07T03:46:18;14.70;99.90
30889;DHT22;51092;50.874;7.024;2023-05-07T03:47:19;14.80;99.90
30889;DHT22;51092;50.874;7.024;2023-05-07T03:48:22;14.80;99.90
30889;DHT22;51092;50.874;7.024;2023-05-07T03:49:23;14.80;99.90
30889;DHT22;51092;50.874;7.024;2023-05-07T03:50:26;14.80;99.90
30889;DHT22;51092;50.874;7.024;2023-05-07T03:51:27;14.70;99.90
30889;DHT22;51092;50.874;7.024;2023-05-07T03:52:29;14.70;99.90
30889;DHT22;51092;50.874;7.024;2023-05-07T03:53:31;14.70;99.90
30889;DHT22;51092;50.874;7.024;2023-05-07T03:54:34;14.70;99.90
30889;DHT22;51092;50.874;7.024;2023-05-07T03:55:35;14.70;99.90
30889;DHT22;51092;50.874;7.024;2023-05-07T03:56:37;14.70;99.90
30889;DHT22;51092;50.874;7.024;2023-05-07T03:57:39;14.70;99.90
30889;DHT22;51092;50.874;7.024;2023-05-07T03:58:41;14.70;99.90
30889;DHT22;51092;50.874;7.024;2023-05-07T03:59:44;14.70;99.90
30889;DHT22;51092;50.874;7.024;2023-05-07T04:00:47;14.70;99.90
30889;DHT22;51092;50.874;7.024;2023-05-07T04:01:49;14.80;99.90
30889;DHT22;51092;50.874;7.024;2023-05-07T04:02:52;14.80;99.90
30889;DHT22;51092;50.874;7.024;2023-05-07T04:03:53;14.80;99.90
30889;DHT22;51092;50.874;7.024;2023-05-07T04:04:55;14.80;99.90
30889;DHT22;51092;50.874;7.024;2023-05-07T04:05:57;14.80;99.90
30889;DHT22;51092;50.874;7.024;2023-05-07T04:06:59;14.80;99.90
30889;DHT22;51092;50.874;7.024;2023-05-07T04:08:02;14.80;99.90
30889;DHT22;51092;50.874;7.024;2023-05-07T04:09:05;14.80;99.90
30889;DHT22;51092;50.874;7.024;2023-05-07T04:10:08;14.80;99.90
30889;DHT22;51092;50.874;7.024;2023-05-07T04:11:11;14.80;99.90
30889;DHT22;51092;50.874;7.024;2023-05-07T04:12:12;14.80;99.90
30889;DHT22;51092;50.874;7.024;2023-05-07T04:13:15;14.80;99.90
30889;DHT22;51092;50.874;7.024;2023-05-07T04:14:16;14.80;99.90
30889;DHT22;51092;50.874;7.024;2023-05-07T04:15:20;14.80;99.90
30889;DHT22;51092;50.874;7.024;2023-05-07T04:16:22;14.80;99.90
30889;DHT22;51092;50.874;7.024;2023-05-07T04:17:24;14.80;99.90
30889;DHT22;51092;50.874;7.024;2023-05-07T04:18:26;14.90;99.90
30889;DHT22;51092;50.874;7.024;2023-05-07T04:19:28;14.90;99.90
30889;DHT22;51092;50.874;7.024;2023-05-07T04:20:29;14.90;99.90
30889;DHT22;51092;50.874;7.024;2023-05-07T04:21:32;15.00;99.90
30889;DHT22;51092;50.874;7.024;2023-05-07T04:22:33;15.00;99.90
30889;DHT22;51092;50.874;7.024;2023-05-07T04:23:36;15.00;99.90
30889;DHT22;51092;50.874;7.024;2023-05-07T04:24:37;15.00;99.90
30889;DHT22;51092;50.874;7.024;2023-05-07T04:25:40;15.00;99.90
30889;DHT22;51092;50.874;7.024;2023-05-07T04:26:42;15.00;99.90
30889;DHT22;51092;50.874;7.024;2023-05-07T04:27:44;15.00;99.90
30889;DHT22;51092;50.874;7.024;2023-05-07T04:28:46;15.00;99.90
30889;DHT22;51092;50.874;7.024;2023-05-07T04:29:48;15.00;99.90
30889;DHT22;51092;50.874;7.024;2023-05-07T04:30:51;15.00;99.90
30889;DHT22;51092;50.874;7.024;2023-05-07T04:31:53;14.90;99.90
30889;DHT22;51092;50.874;7.024;2023-05-07T04:32:57;14.90;99.90
30889;DHT22;51092;50.874;7.024;2023-05-07T04:33:59;14.90;99.90
30889;DHT22;51092;50.874;7.024;2023-05-07T04:35:01;14.90;99.90
30889;DHT22;51092;50.874;7.024;2023-05-07T04:36:04;14.90;99.90
30889;DHT22;51092;50.874;7.024;2023-05-07T04:37:06;14.90;99.90
30889;DHT22;51092;50.874;7.024;2023-05-07T04:38:08;14.90;99.90
30889;DHT22;51092;50.874;7.024;2023-05-07T04:39:10;14.90;99.90
30889;DHT22;51092;50.874;7.024;2023-05-07T04:40:12;14.90;99.90
30889;DHT22;51092;50.874;7.024;2023-05-07T04:41:14;14.90;99.90
30889;DHT22;51092;50.874;7.024;2023-05-07T04:42:18;14.90;99.90
30889;DHT22;51092;50.874;7.024;2023-05-07T04:43:19;14.90;99.90
30889;DHT22;51092;50.874;7.024;2023-05-07T04:44:22;14.90;99.90
30889;DHT22;51092;50.874;7.024;2023-05-07T04:45:23;15.00;99.90
30889;DHT22;51092;50.874;7.024;2023-05-07T04:46:27;15.00;99.90
30889;DHT22;51092;50.874;7.024;2023-05-07T04:47:29;15.00;99.90
30889;DHT22;51092;50.874;7.024;2023-05-07T04:48:31;15.00;99.90
30889;DHT22;51092;50.874;7.024;2023-05-07T04:49:33;15.00;99.90
30889;DHT22;51092;50.874;7.024;2023-05-07T04:50:35;15.00;99.90
30889;DHT22;51092;50.874;7.024;2023-05-07T04:51:37;15.00;99.90
30889;DHT22;51092;50.874;7.024;2023-05-07T04:52:39;15.10;99.90
30889;DHT22;51092;50.874;7.024;2023-05-07T04:53:41;15.00;99.90
30889;DHT22;51092;50.874;7.024;2023-05-07T04:54:44;15.00;99.90
30889;DHT22;51092;50.874;7.024;2023-05-07T04:55:45;15.00;99.90
30889;DHT22;51092;50.874;7.024;2023-05-07T04:56:48;15.10;99.90
30889;DHT22;51092;50.874;7.024;2023-05-07T04:57:49;15.10;99.90
30889;DHT22;51092;50.874;7.024;2023-05-07T04:58:52;15.10;99.90
30889;DHT22;51092;50.874;7.024;2023-05-07T04:59:53;15.10;99.90
30889;DHT22;51092;50.874;7.024;2023-05-07T05:00:56;15.10;99.90
30889;DHT22;51092;50.874;7.024;2023-05-07T05:01:59;15.10;99.90
30889;DHT22;51092;50.874;7.024;2023-05-07T05:03:02;15.10;99.90
30889;DHT22;51092;50.874;7.024;2023-05-07T05:04:03;15.20;99.90
30889;DHT22;51092;50.874;7.024;2023-05-07T05:05:06;15.10;99.90
30889;DHT22;51092;50.874;7.024;2023-05-07T05:06:08;15.10;99.90
30889;DHT22;51092;50.874;7.024;2023-05-07T05:07:11;15.10;99.90
30889;DHT22;51092;50.874;7.024;2023-05-07T05:08:13;15.10;99.90
30889;DHT22;51092;50.874;7.024;2023-05-07T05:09:16;15.10;99.90
30889;DHT22;51092;50.874;7.024;2023-05-07T05:10:17;15.10;99.90
30889;DHT22;51092;50.874;7.024;2023-05-07T05:11:20;15.10;99.90
30889;DHT22;51092;50.874;7.024;2023-05-07T05:12:22;15.10;99.90
30889;DHT22;51092;50.874;7.024;2023-05-07T05:13:24;15.20;99.90
30889;DHT22;51092;50.874;7.024;2023-05-07T05:14:25;15.20;99.90
30889;DHT22;51092;50.874;7.024;2023-05-07T05:15:28;15.20;99.90
30889;DHT22;51092;50.874;7.024;2023-05-07T05:16:30;15.20;99.90
30889;DHT22;51092;50.874;7.024;2023-05-07T05:17:33;15.20;99.90
30889;DHT22;51092;50.874;7.024;2023-05-07T05:18:36;15.20;99.90
30889;DHT22;51092;50.874;7.024;2023-05-07T05:19:39;15.20;99.90
30889;DHT22;51092;50.874;7.024;2023-05-07T05:20:41;15.40;99.90
30889;DHT22;51092;50.874;7.024;2023-05-07T05:21:43;15.40;99.90
30889;DHT22;51092;50.874;7.024;2023-05-07T05:22:45;15.50;99.90
30889;DHT22;51092;50.874;7.024;2023-05-07T05:23:47;15.40;99.90
30889;DHT22;51092;50.874;7.024;2023-05-07T05:24:49;15.40;99.90
30889;DHT22;51092;50.874;7.024;2023-05-07T05:25:55;15.40;99.90
30889;DHT22;51092;50.874;7.024;2023-05-07T05:26:57;15.40;99.90
30889;DHT22;51092;50.874;7.024;2023-05-07T05:28:02;15.50;99.90
30889;DHT22;51092;50.874;7.024;2023-05-07T05:29:03;15.50;99.90
30889;DHT22;51092;50.874;7.024;2023-05-07T05:30:07;15.60;99.90
30889;DHT22;51092;50.874;7.024;2023-05-07T05:31:08;15.60;99.90
30889;DHT22;51092;50.874;7.024;2023-05-07T05:32:11;15.60;99.90
30889;DHT22;51092;50.874;7.024;2023-05-07T05:33:14;15.60;99.90
30889;DHT22;51092;50.874;7.024;2023-05-07T05:34:16;15.60;99.90
30889;DHT22;51092;50.874;7.024;2023-05-07T05:35:21;15.60;99.90
30889;DHT22;51092;50.874;7.024;2023-05-07T05:36:23;15.60;99.90
30889;DHT22;51092;50.874;7.024;2023-05-07T05:37:25;15.70;99.90
30889;DHT22;51092;50.874;7.024;2023-05-07T05:38:27;15.70;99.90
30889;DHT22;51092;50.874;7.024;2023-05-07T05:39:29;15.80;99.90
30889;DHT22;51092;50.874;7.024;2023-05-07T05:40:31;15.90;99.90
30889;DHT22;51092;50.874;7.024;2023-05-07T05:41:34;15.90;99.90
30889;DHT22;51092;50.874;7.024;2023-05-07T05:42:37;16.00;99.90
30889;DHT22;51092;50.874;7.024;2023-05-07T05:43:38;16.00;99.90
30889;DHT22;51092;50.874;7.024;2023-05-07T05:44:41;16.00;99.90
30889;DHT22;51092;50.874;7.024;2023-05-07T05:45:43;16.00;99.90
30889;DHT22;51092;50.874;7.024;2023-05-07T05:46:45;15.90;99.90
30889;DHT22;51092;50.874;7.024;2023-05-07T05:47:47;16.00;99.90
30889;DHT22;51092;50.874;7.024;2023-05-07T05:48:51;16.00;99.90
30889;DHT22;51092;50.874;7.024;2023-05-07T05:49:53;16.10;99.90
30889;DHT22;51092;50.874;7.024;2023-05-07T05:50:55;16.10;99.90
30889;DHT22;51092;50.874;7.024;2023-05-07T05:51:56;16.10;99.90
30889;DHT22;51092;50.874;7.024;2023-05-07T05:52:59;16.10;99.90
30889;DHT22;51092;50.874;7.024;2023-05-07T05:54:00;16.10;99.90
30889;DHT22;51092;50.874;7.024;2023-05-07T05:55:03;16.10;99.90
30889;DHT22;51092;50.874;7.024;2023-05-07T05:56:06;16.10;99.90
30889;DHT22;51092;50.874;7.024;2023-05-07T05:57:08;16.10;99.90
30889;DHT22;51092;50.874;7.024;2023-05-07T05:58:10;16.10;99.90
30889;DHT22;51092;50.874;7.024;2023-05-07T05:59:13;16.20;99.90
30889;DHT22;51092;50.874;7.024;2023-05-07T06:00:14;16.20;99.90
30889;DHT22;51092;50.874;7.024;2023-05-07T06:01:17;16.30;99.90
30889;DHT22;51092;50.874;7.024;2023-05-07T06:02:19;16.30;99.90
30889;DHT22;51092;50.874;7.024;2023-05-07T06:03:21;16.40;99.90
30889;DHT22;51092;50.874;7.024;2023-05-07T06:04:24;16.50;99.90
30889;DHT22;51092;50.874;7.024;2023-05-07T06:05:26;16.50;99.90
30889;DHT22;51092;50.874;7.024;2023-05-07T06:06:28;16.50;99.90
30889;DHT22;51092;50.874;7.024;2023-05-07T06:07:32;16.60;99.90
30889;DHT22;51092;50.874;7.024;2023-05-07T06:08:33;16.60;99.90
30889;DHT22;51092;50.874;7.024;2023-05-07T06:09:36;16.70;99.90
30889;DHT22;51092;50.874;7.024;2023-05-07T06:10:37;16.60;99.90
30889;DHT22;51092;50.874;7.024;2023-05-07T06:11:39;16.70;99.90
30889;DHT22;51092;50.874;7.024;2023-05-07T06:12:41;16.70;99.90
30889;DHT22;51092;50.874;7.024;2023-05-07T06:13:43;16.80;99.90
30889;DHT22;51092;50.874;7.024;2023-05-07T06:14:45;16.90;99.90
30889;DHT22;51092;50.874;7.024;2023-05-07T06:15:47;16.80;99.90
30889;DHT22;51092;50.874;7.024;2023-05-07T06:16:50;16.90;99.90
30889;DHT22;51092;50.874;7.024;2023-05-07T06:17:52;17.00;99.90
30889;DHT22;51092;50.874;7.024;2023-05-07T06:18:53;16.90;99.90
30889;DHT22;51092;50.874;7.024;2023-05-07T06:19:57;16.90;99.90
30889;DHT22;51092;50.874;7.024;2023-05-07T06:20:59;16.90;99.90
30889;DHT22;51092;50.874;7.024;2023-05-07T06:22:01;17.10;99.90
30889;DHT22;51092;50.874;7.024;2023-05-07T06:23:03;17.20;99.90
30889;DHT22;51092;50.874;7.024;2023-05-07T06:24:06;17.20;99.90
30889;DHT22;51092;50.874;7.024;2023-05-07T06:25:08;17.30;99.90
30889;DHT22;51092;50.874;7.024;2023-05-07T06:26:11;17.50;99.90
30889;DHT22;51092;50.874;7.024;2023-05-07T06:27:13;17.60;99.90
30889;DHT22;51092;50.874;7.024;2023-05-07T06:28:16;17.60;99.90
30889;DHT22;51092;50.874;7.024;2023-05-07T06:29:17;17.70;99.90
30889;DHT22;51092;50.874;7.024;2023-05-07T06:30:20;17.70;99.90
30889;DHT22;51092;50.874;7.024;2023-05-07T06:31:23;17.70;99.90
30889;DHT22;51092;50.874;7.024;2023-05-07T06:32:24;17.80;99.90
30889;DHT22;51092;50.874;7.024;2023-05-07T06:33:27;17.90;99.90
30889;DHT22;51092;50.874;7.024;2023-05-07T06:34:28;17.90;99.90